Time,TemperatureF,DewpointF,PressureIn,WindDirection,WindDirectionDegrees,WindSpeedMPH,WindSpeedGustMPH,Humidity,HourlyPrecipIn,Conditions,Clouds,dailyrainin,SoftwareType,DateUTC
2013-01-15 00:02:00,-20.0,-22.0,-100.00,North,-999,0.0,3.0,90,0.00,,,-99.99,,2013-01-15 07:02:00,
2013-01-15 00:12:00,-20.0,-22.0,-100.00,North,-999,0.0,3.0,90,0.00,,,-99.99,,2013-01-15 07:12:00,
2013-01-15 00:22:00,-20.0,-22.0,-100.00,WNW,292,0.0,0.0,90,0.00,,,-99.99,,2013-01-15 07:22:00,
2013-01-15 00:32:00,-21.0,-23.0,-100.00,SSE,159,0.0,1.0,91,0.00,,,-99.99,,2013-01-15 07:32:00,
2013-01-15 00:42:00,-21.0,-23.0,-100.00,SSE,159,0.0,1.0,91,0.00,,,-99.99,,2013-01-15 07:42:00,
2013-01-15 00:52:00,-22.0,-24.0,-100.00,ESE,121,1.0,2.0,88,0.00,,,-99.99,,2013-01-15 07:52:00,
2013-01-15 01:02:00,-21.0,-22.0,-100.00,ESE,115,3.0,4.0,93,0.00,,,-99.99,,2013-01-15 08:02:00,
2013-01-15 01:12:00,-21.0,-22.0,-100.00,ESE,115,3.0,4.0,93,0.00,,,-99.99,,2013-01-15 08:12:00,
2013-01-15 01:22:00,-19.0,-21.0,-100.00,ESE,121,1.0,3.0,91,0.00,,,-99.99,,2013-01-15 08:22:00,
2013-01-15 01:32:00,-20.0,-22.0,-100.00,ESE,116,2.0,3.0,91,0.00,,,-99.99,,2013-01-15 08:32:00,
2013-01-15 01:42:00,-20.0,-22.0,-100.00,ESE,116,2.0,3.0,91,0.00,,,-99.99,,2013-01-15 08:42:00,
2013-01-15 01:53:00,-19.0,-21.0,-100.00,ESE,115,3.0,4.0,90,0.00,,,-99.99,,2013-01-15 08:53:00,
2013-01-15 02:02:00,-19.0,-21.0,-100.00,ESE,119,3.0,5.0,91,0.00,,,-99.99,,2013-01-15 09:02:00,
2013-01-15 02:12:00,-19.0,-21.0,-100.00,ESE,119,3.0,5.0,91,0.00,,,-99.99,,2013-01-15 09:12:00,
2013-01-15 02:22:00,-19.0,-21.0,-100.00,ESE,121,4.0,5.0,91,0.00,,,-99.99,,2013-01-15 09:22:00,
2013-01-15 02:33:00,-19.0,-21.0,-100.00,ESE,123,4.0,6.0,90,0.00,,,-99.99,,2013-01-15 09:33:00,
2013-01-15 02:42:00,-19.0,-21.0,-100.00,ESE,123,4.0,6.0,90,0.00,,,-99.99,,2013-01-15 09:42:00,
2013-01-15 02:52:00,-20.0,-22.0,-100.00,SE,127,3.0,4.0,89,0.00,,,-99.99,,2013-01-15 09:52:00,
2013-01-15 03:02:00,-20.0,-22.0,-100.00,ESE,112,3.0,4.0,89,0.00,,,-99.99,,2013-01-15 10:02:00,
2013-01-15 03:11:00,-20.0,-22.0,-100.00,ESE,112,3.0,4.0,89,0.00,,,-99.99,,2013-01-15 10:11:00,
2013-01-15 03:22:00,-20.0,-22.0,-100.00,SE,124,3.0,4.0,91,0.00,,,-99.99,,2013-01-15 10:22:00,
2013-01-15 03:32:00,-22.0,-24.0,-100.00,ESE,117,3.0,4.0,91,0.00,,,-99.99,,2013-01-15 10:32:00,
2013-01-15 03:42:00,-22.0,-24.0,-100.00,ESE,117,3.0,4.0,91,0.00,,,-99.99,,2013-01-15 10:42:00,
2013-01-15 03:52:00,-22.0,-24.0,-100.00,ESE,123,4.0,5.0,91,0.00,,,-99.99,,2013-01-15 10:52:00,
2013-01-15 04:02:00,-20.0,-22.0,-100.00,ESE,118,5.0,6.0,91,0.00,,,-99.99,,2013-01-15 11:02:00,
2013-01-15 04:12:00,-20.0,-22.0,-100.00,ESE,119,4.0,5.0,90,0.00,,,-99.99,,2013-01-15 11:12:00,
2013-01-15 04:22:00,-20.0,-22.0,-100.00,ESE,119,4.0,5.0,90,0.00,,,-99.99,,2013-01-15 11:22:00,
2013-01-15 04:33:00,-19.0,-21.0,-100.00,SE,129,4.0,5.0,90,0.00,,,-99.99,,2013-01-15 11:33:00,
2013-01-15 04:42:00,-19.0,-21.0,-100.00,SE,129,4.0,5.0,90,0.00,,,-99.99,,2013-01-15 11:42:00,
2013-01-15 04:53:00,-19.0,-21.0,-100.00,SE,133,4.0,5.0,89,0.00,,,-99.99,,2013-01-15 11:53:00,
2013-01-15 05:02:00,-19.0,-21.0,-100.00,ESE,121,5.0,6.0,89,0.00,,,-99.99,,2013-01-15 12:02:00,
2013-01-15 05:12:00,-19.0,-21.0,-100.00,ESE,121,5.0,6.0,89,0.00,,,-99.99,,2013-01-15 12:12:00,
2013-01-15 05:22:00,-19.0,-21.0,-100.00,SE,124,5.0,6.0,89,0.00,,,-99.99,,2013-01-15 12:22:00,
2013-01-15 05:33:00,-18.0,-20.0,-100.00,SE,133,3.0,5.0,88,0.00,,,-99.99,,2013-01-15 12:33:00,
2013-01-15 05:42:00,-18.0,-20.0,-100.00,SE,133,3.0,5.0,88,0.00,,,-99.99,,2013-01-15 12:42:00,
2013-01-15 05:53:00,-18.0,-20.0,-100.00,ESE,118,2.0,3.0,88,0.00,,,-99.99,,2013-01-15 12:53:00,
2013-01-15 06:03:00,-18.0,-20.0,-100.00,ESE,117,2.0,3.0,88,0.00,,,-99.99,,2013-01-15 13:03:00,
2013-01-15 06:12:00,-18.0,-20.0,-100.00,ESE,117,2.0,3.0,88,0.00,,,-99.99,,2013-01-15 13:12:00,
2013-01-15 06:23:00,-16.0,-18.0,-100.00,SE,132,2.0,3.0,89,0.00,,,-99.99,,2013-01-15 13:23:00,
2013-01-15 06:33:00,-15.0,-17.0,-100.00,ESE,120,2.0,3.0,89,0.00,,,-99.99,,2013-01-15 13:33:00,
2013-01-15 06:43:00,-15.0,-17.0,-100.00,ESE,120,2.0,3.0,89,0.00,,,-99.99,,2013-01-15 13:43:00,
2013-01-15 06:53:00,-15.0,-17.0,-100.00,ESE,115,4.0,5.0,88,0.00,,,-99.99,,2013-01-15 13:53:00,
2013-01-15 07:02:00,-14.0,-17.0,-100.00,ESE,116,4.0,5.0,88,0.00,,,-99.99,,2013-01-15 14:02:00,
2013-01-15 07:12:00,-14.0,-17.0,-100.00,ESE,116,4.0,5.0,88,0.00,,,-99.99,,2013-01-15 14:12:00,
2013-01-15 07:23:00,-14.0,-17.0,-100.00,ESE,119,3.0,5.0,88,0.00,,,-99.99,,2013-01-15 14:23:00,
2013-01-15 07:33:00,-13.0,-16.0,-100.00,SE,127,2.0,3.0,88,0.00,,,-99.99,,2013-01-15 14:33:00,
2013-01-15 07:43:00,-13.0,-16.0,-100.00,SE,127,2.0,3.0,88,0.00,,,-99.99,,2013-01-15 14:43:00,
2013-01-15 07:53:00,-12.0,-14.0,-100.00,SE,132,3.0,4.0,89,0.00,,,-99.99,,2013-01-15 14:53:00,
2013-01-15 08:03:00,-12.0,-15.0,-100.00,ESE,118,3.0,4.0,87,0.00,,,-99.99,,2013-01-15 15:03:00,
2013-01-15 08:12:00,-12.0,-15.0,-100.00,ESE,118,3.0,4.0,87,0.00,,,-99.99,,2013-01-15 15:12:00,
2013-01-15 08:23:00,-12.0,-15.0,-100.00,ESE,118,3.0,4.0,87,0.00,,,-99.99,,2013-01-15 15:23:00,
2013-01-15 08:33:00,-10.0,-12.0,-100.00,SSE,165,1.0,3.0,89,0.00,,,-99.99,,2013-01-15 15:33:00,
2013-01-15 08:43:00,-10.0,-12.0,-100.00,SSE,165,1.0,3.0,89,0.00,,,-99.99,,2013-01-15 15:43:00,
2013-01-15 08:53:00,-10.0,-13.0,-100.00,SSE,153,1.0,2.0,87,0.00,,,-99.99,,2013-01-15 15:53:00,
2013-01-15 09:03:00,-8.0,-11.0,-100.00,South,179,0.0,1.0,87,0.00,,,-99.99,,2013-01-15 16:03:00,
2013-01-15 09:12:00,-8.0,-11.0,-100.00,South,179,0.0,1.0,87,0.00,,,-99.99,,2013-01-15 16:12:00,
2013-01-15 09:22:00,-6.0,-8.0,-100.00,SSW,213,0.0,0.0,91,0.00,,,-99.99,,2013-01-15 16:22:00,
2013-01-15 09:33:00,-4.0,-7.0,-100.00,NNW,337,1.0,3.0,87,0.00,,,-99.99,,2013-01-15 16:33:00,
2013-01-15 09:42:00,-4.0,-7.0,-100.00,NNW,337,1.0,3.0,87,0.00,,,-99.99,,2013-01-15 16:42:00,
2013-01-15 09:53:00,-3.0,-6.0,-100.00,SSE,147,2.0,4.0,88,0.00,,,-99.99,,2013-01-15 16:53:00,
2013-01-15 10:03:00,-2.0,-6.0,-100.00,North,-999,0.0,0.0,84,0.00,,,-99.99,,2013-01-15 17:03:00,
2013-01-15 10:12:00,-2.0,-6.0,-100.00,North,-999,0.0,0.0,84,0.00,,,-99.99,,2013-01-15 17:12:00,
2013-01-15 10:22:00,0.0,-3.0,-100.00,North,-999,0.0,0.0,85,0.00,,,-99.99,,2013-01-15 17:22:00,
2013-01-15 10:33:00,0.0,-3.0,-100.00,WSW,245,0.0,0.0,86,0.00,,,-99.99,,2013-01-15 17:33:00,
2013-01-15 10:42:00,0.0,-3.0,-100.00,WSW,245,0.0,0.0,86,0.00,,,-99.99,,2013-01-15 17:42:00,
2013-01-15 10:53:00,0.0,-3.0,-100.00,West,274,0.0,0.0,85,0.00,,,-99.99,,2013-01-15 17:53:00,
2013-01-15 11:03:00,2.0,-3.0,-100.00,WNW,292,3.0,5.0,79,0.00,,,-99.99,,2013-01-15 18:03:00,
2013-01-15 11:12:00,2.0,-3.0,-100.00,WNW,292,3.0,5.0,79,0.00,,,-99.99,,2013-01-15 18:12:00,
2013-01-15 11:23:00,1.0,-6.0,-100.00,WNW,300,1.0,3.0,73,0.00,,,-99.99,,2013-01-15 18:23:00,
2013-01-15 11:33:00,3.0,-3.0,-100.00,SW,231,1.0,2.0,76,0.00,,,-99.99,,2013-01-15 18:33:00,
2013-01-15 11:42:00,3.0,-3.0,-100.00,SW,231,1.0,2.0,76,0.00,,,-99.99,,2013-01-15 18:42:00,
2013-01-15 11:53:00,4.0,-1.0,-100.00,WSW,258,2.0,4.0,81,0.00,,,-99.99,,2013-01-15 18:53:00,
2013-01-15 12:03:00,5.0,-1.0,-100.00,NNW,337,4.0,6.0,75,0.00,,,-99.99,,2013-01-15 19:03:00,
2013-01-15 12:12:00,5.0,-1.0,-100.00,NNW,337,4.0,6.0,75,0.00,,,-99.99,,2013-01-15 19:12:00,
2013-01-15 12:22:00,4.0,-3.0,-100.00,NNW,331,3.0,7.0,71,0.00,,,-99.99,,2013-01-15 19:22:00,
2013-01-15 12:33:00,4.0,-3.0,-100.00,NNW,331,3.0,7.0,71,0.00,,,-99.99,,2013-01-15 19:33:00,
2013-01-15 12:42:00,4.0,-3.0,-100.00,NNW,331,3.0,7.0,71,0.00,,,-99.99,,2013-01-15 19:42:00,
2013-01-15 12:52:00,5.0,-4.0,-100.00,NNW,337,5.0,8.0,66,0.00,,,-99.99,,2013-01-15 19:52:00,
2013-01-15 13:03:00,4.0,-4.0,-100.00,NW,311,7.0,11.0,67,0.00,,,-99.99,,2013-01-15 20:03:00,
2013-01-15 13:12:00,4.0,-4.0,-100.00,NW,311,7.0,11.0,67,0.00,,,-99.99,,2013-01-15 20:12:00,
2013-01-15 13:23:00,4.0,-4.0,-100.00,NW,311,7.0,11.0,67,0.00,,,-99.99,,2013-01-15 20:23:00,
2013-01-15 13:33:00,3.0,-3.0,-100.00,WNW,297,8.0,15.0,75,0.00,,,-99.99,,2013-01-15 20:33:00,
2013-01-15 13:43:00,3.0,-3.0,-100.00,WNW,297,8.0,15.0,75,0.00,,,-99.99,,2013-01-15 20:43:00,
2013-01-15 13:53:00,3.0,-1.0,-100.00,NW,321,3.0,8.0,81,0.00,,,-99.99,,2013-01-15 20:53:00,
2013-01-15 14:03:00,4.0,-3.0,-100.00,WNW,286,6.0,9.0,73,0.00,,,-99.99,,2013-01-15 21:03:00,
2013-01-15 14:12:00,4.0,-3.0,-100.00,WNW,286,6.0,9.0,73,0.00,,,-99.99,,2013-01-15 21:12:00,
2013-01-15 14:23:00,4.0,-2.0,-100.00,NW,309,5.0,8.0,74,0.00,,,-99.99,,2013-01-15 21:23:00,
2013-01-15 14:33:00,4.0,-2.0,-100.00,NNW,333,4.0,9.0,76,0.00,,,-99.99,,2013-01-15 21:33:00,
2013-01-15 14:43:00,4.0,-2.0,-100.00,NNW,333,4.0,9.0,76,0.00,,,-99.99,,2013-01-15 21:43:00,
2013-01-15 14:53:00,5.0,-1.0,-100.00,NNW,337,7.0,12.0,74,0.00,,,-99.99,,2013-01-15 21:53:00,
2013-01-15 15:03:00,4.0,-1.0,-100.00,NNW,337,4.0,6.0,79,0.00,,,-99.99,,2013-01-15 22:03:00,
2013-01-15 15:12:00,4.0,-1.0,-100.00,NNW,337,4.0,6.0,79,0.00,,,-99.99,,2013-01-15 22:12:00,
2013-01-15 15:23:00,4.0,-1.0,-100.00,NNW,327,2.0,4.0,80,0.00,,,-99.99,,2013-01-15 22:23:00,
2013-01-15 15:33:00,4.0,-1.0,-100.00,NNW,337,5.0,7.0,79,0.00,,,-99.99,,2013-01-15 22:33:00,
2013-01-15 15:43:00,4.0,-1.0,-100.00,NNW,337,5.0,7.0,79,0.00,,,-99.99,,2013-01-15 22:43:00,
2013-01-15 15:53:00,3.0,-1.0,-100.00,North,352,7.0,9.0,82,0.00,,,-99.99,,2013-01-15 22:53:00,
2013-01-15 16:02:00,2.0,-1.0,-100.00,NNW,337,5.0,7.0,85,0.00,,,-99.99,,2013-01-15 23:02:00,
2013-01-15 16:13:00,2.0,-1.0,-100.00,NNW,337,5.0,7.0,85,0.00,,,-99.99,,2013-01-15 23:13:00,
2013-01-15 16:22:00,2.0,-1.0,-100.00,NW,315,4.0,6.0,86,0.00,,,-99.99,,2013-01-15 23:22:00,
2013-01-15 16:32:00,3.0,-1.0,-100.00,SSW,201,0.0,1.0,83,0.00,,,-99.99,,2013-01-15 23:32:00,
2013-01-15 16:42:00,3.0,-1.0,-100.00,SSW,201,0.0,1.0,83,0.00,,,-99.99,,2013-01-15 23:42:00,
2013-01-15 16:53:00,4.0,0.0,-100.00,WSW,258,0.0,0.0,83,0.00,,,-99.99,,2013-01-15 23:53:00,
2013-01-15 17:02:00,4.0,-1.0,-100.00,West,271,0.0,0.0,81,0.00,,,-99.99,,2013-01-16 00:02:00,
2013-01-15 17:12:00,4.0,-1.0,-100.00,West,271,0.0,0.0,81,0.00,,,-99.99,,2013-01-16 00:12:00,
2013-01-15 17:22:00,4.0,0.0,-100.00,WNW,292,0.0,1.0,84,0.00,,,-99.99,,2013-01-16 00:22:00,
2013-01-15 17:32:00,2.0,-2.0,-100.00,NNW,337,2.0,4.0,84,0.00,,,-99.99,,2013-01-16 00:32:00,
2013-01-15 17:43:00,2.0,-2.0,-100.00,NNW,337,2.0,4.0,84,0.00,,,-99.99,,2013-01-16 00:43:00,
2013-01-15 17:52:00,2.0,-1.0,-100.00,NNW,337,0.0,1.0,85,0.00,,,-99.99,,2013-01-16 00:52:00,
2013-01-15 18:03:00,3.0,0.0,-100.00,North,-999,0.0,0.0,85,0.00,,,-99.99,,2013-01-16 01:03:00,
2013-01-15 18:12:00,3.0,0.0,-100.00,North,-999,0.0,0.0,85,0.00,,,-99.99,,2013-01-16 01:12:00,
2013-01-15 18:22:00,3.0,0.0,-100.00,NNW,337,0.0,0.0,86,0.00,,,-99.99,,2013-01-16 01:22:00,
2013-01-15 18:33:00,3.0,0.0,-100.00,NNW,337,0.0,2.0,86,0.00,,,-99.99,,2013-01-16 01:33:00,
2013-01-15 18:42:00,3.0,0.0,-100.00,NNW,337,0.0,2.0,86,0.00,,,-99.99,,2013-01-16 01:42:00,
2013-01-15 18:53:00,3.0,1.0,-100.00,NNW,337,4.0,6.0,89,0.00,,,-99.99,,2013-01-16 01:53:00,
2013-01-15 19:02:00,2.0,0.0,-100.00,NW,321,6.0,8.0,90,0.00,,,-99.99,,2013-01-16 02:02:00,
2013-01-15 19:12:00,2.0,0.0,-100.00,NW,321,6.0,8.0,90,0.00,,,-99.99,,2013-01-16 02:12:00,
2013-01-15 19:22:00,1.0,-1.0,-100.00,NNW,337,4.0,8.0,89,0.00,,,-99.99,,2013-01-16 02:22:00,
2013-01-15 19:32:00,0.0,-2.0,-100.00,NNW,335,3.0,6.0,90,0.00,,,-99.99,,2013-01-16 02:32:00,
2013-01-15 19:42:00,0.0,-2.0,-100.00,NNW,335,3.0,6.0,90,0.00,,,-99.99,,2013-01-16 02:42:00,
2013-01-15 19:53:00,0.0,-2.0,-100.00,WNW,285,4.0,5.0,89,0.00,,,-99.99,,2013-01-16 02:53:00,
2013-01-15 20:02:00,0.0,-2.0,-100.00,NNW,331,4.0,5.0,89,0.00,,,-99.99,,2013-01-16 03:02:00,
2013-01-15 20:12:00,0.0,-2.0,-100.00,NNW,337,5.0,6.0,90,0.00,,,-99.99,,2013-01-16 03:12:00,
2013-01-15 20:22:00,0.0,-2.0,-100.00,NNW,337,5.0,6.0,90,0.00,,,-99.99,,2013-01-16 03:22:00,
2013-01-15 20:32:00,0.0,-2.0,-100.00,NNW,337,3.0,5.0,92,0.00,,,-99.99,,2013-01-16 03:32:00,
2013-01-15 20:42:00,0.0,-2.0,-100.00,NNW,337,3.0,5.0,92,0.00,,,-99.99,,2013-01-16 03:42:00,
2013-01-15 20:53:00,0.0,-2.0,-100.00,North,-999,0.0,0.0,91,0.00,,,-99.99,,2013-01-16 03:53:00,
2013-01-15 21:02:00,0.0,-2.0,-100.00,SSE,156,0.0,1.0,90,0.00,,,-99.99,,2013-01-16 04:02:00,
2013-01-15 21:12:00,0.0,-2.0,-100.00,SSE,156,0.0,1.0,90,0.00,,,-99.99,,2013-01-16 04:12:00,
2013-01-15 21:22:00,1.0,-1.0,-100.00,SW,214,3.0,4.0,91,0.00,,,-99.99,,2013-01-16 04:22:00,
2013-01-15 21:32:00,1.0,-1.0,-100.00,SSW,201,1.0,3.0,91,0.00,,,-99.99,,2013-01-16 04:32:00,
2013-01-15 21:42:00,1.0,-1.0,-100.00,SSW,201,1.0,3.0,91,0.00,,,-99.99,,2013-01-16 04:42:00,
2013-01-15 21:52:00,2.0,0.0,-100.00,WSW,256,0.0,0.0,91,0.00,,,-99.99,,2013-01-16 04:52:00,
2013-01-15 22:03:00,3.0,1.0,-100.00,North,-999,0.0,0.0,91,0.00,,,-99.99,,2013-01-16 05:03:00,
2013-01-15 22:12:00,3.0,1.0,-100.00,North,-999,0.0,0.0,91,0.00,,,-99.99,,2013-01-16 05:12:00,
2013-01-15 22:22:00,3.0,1.0,-100.00,SSW,206,0.0,0.0,90,0.00,,,-99.99,,2013-01-16 05:22:00,
2013-01-15 22:32:00,3.0,1.0,-100.00,NNW,337,0.0,0.0,90,0.00,,,-99.99,,2013-01-16 05:32:00,
2013-01-15 22:42:00,3.0,1.0,-100.00,NNW,337,0.0,0.0,90,0.00,,,-99.99,,2013-01-16 05:42:00,
2013-01-15 22:53:00,2.0,0.0,-100.00,NNW,337,0.0,2.0,91,0.00,,,-99.99,,2013-01-16 05:53:00,
2013-01-15 23:02:00,3.0,1.0,-100.00,North,-999,0.0,0.0,90,0.00,,,-99.99,,2013-01-16 06:02:00,
2013-01-15 23:12:00,3.0,1.0,-100.00,North,-999,0.0,0.0,90,0.00,,,-99.99,,2013-01-16 06:12:00,
2013-01-15 23:22:00,3.0,1.0,-100.00,WSW,245,0.0,0.0,90,0.00,,,-99.99,,2013-01-16 06:22:00,
2013-01-15 23:32:00,3.0,1.0,-100.00,NNW,330,2.0,4.0,91,0.00,,,-99.99,,2013-01-16 06:32:00,
2013-01-15 23:43:00,3.0,1.0,-100.00,NNW,330,2.0,4.0,91,0.00,,,-99.99,,2013-01-16 06:43:00,
2013-01-15 23:53:00,3.0,1.0,-100.00,NNW,337,2.0,4.0,91,0.00,,,-99.99,,2013-01-16 06:53:00,